This is the latest recevied weather packets stored in our database for station/object KB7STN. If no packets are shown the sender has not sent any weather packets the latest 1 day(s).
| Time | Temp. | Humidity | Pressure | Rain* | Wind** | Luminosity | Snow |
|---|---|---|---|---|---|---|---|
| 1778067135 | 4.44° C | 78% | 1009.3 hPa | 0 mm | - | - | - |
| 1778064735 | 4.44° C | 81% | 1008.9 hPa | 0.25 mm | - | - | - |
| 1778062335 | 4.44° C | 87% | 1008 hPa | 0.25 mm | - | - | - |
| 1778059935 | 5° C | 87% | 1007.2 hPa | 2.03 mm | - | - | - |
| 1778055736 | 8.89° C | 72% | 1003.9 hPa | 0 mm | - | - | - |
| 1778054836 | 9.44° C | 68% | 1004 hPa | 0 mm | - | - | - |
| 1778054536 | 9.44° C | 66% | 1004.1 hPa | 0 mm | - | - | - |
| 1778054236 | 9.44° C | 66% | 1003.9 hPa | 0 mm | - | - | - |
| 1778053936 | 10° C | 65% | 1004 hPa | 0 mm | - | - | - |
| 1778053636 | 10° C | 66% | 1003.9 hPa | 0 mm | - | - | - |
| 1778053336 | 9.44° C | 66% | 1004 hPa | 0 mm | - | - | - |
| 1778053036 | 9.44° C | 66% | 1004.3 hPa | 0 mm | - | - | - |
| 1778052736 | 9.44° C | 67% | 1004.3 hPa | 0 mm | - | - | - |
| 1778052436 | 9.44° C | 69% | 1004.3 hPa | 0 mm | - | - | - |
| 1778052136 | 9.44° C | 69% | 1004.3 hPa | 0 mm | - | - | - |
| 1778051836 | 8.89° C | 70% | 1004.2 hPa | 0 mm | - | - | - |
| 1778051536 | 8.89° C | 71% | 1004.1 hPa | 0 mm | - | - | - |
| 1778051236 | 8.89° C | 73% | 1004.2 hPa | 0 mm | - | - | - |
| 1778050936 | 9.44° C | 73% | 1004.1 hPa | 0 mm | - | - | - |
| 1778050636 | 9.44° C | 72% | 1004.2 hPa | 0 mm | - | - | - |
| 1778050336 | 9.44° C | 70% | 1004.2 hPa | 0 mm | - | - | - |
| 1778050036 | 9.44° C | 69% | 1004.4 hPa | 0 mm | - | - | - |
| 1778049736 | 10° C | 67% | 1004.3 hPa | 0 mm | - | - | - |
| 1778049436 | 10° C | 67% | 1004.1 hPa | 0 mm | - | - | - |
| 1778049136 | 10° C | 65% | 1004.1 hPa | 0 mm | - | - | - |
* Rain latest hour (hover to see other rain measurements)
** Current wind speed in m/s (hover to see current wind gust speed)